createdAt,value
2023-10-11T00:00:29.352Z,18.47
2023-10-11T00:03:29.639Z,18.49
2023-10-11T00:05:57.576Z,18.45
2023-10-11T00:08:27.289Z,18.42
2023-10-11T00:10:56.281Z,18.45
2023-10-11T00:13:24.227Z,18.50
2023-10-11T00:15:53.671Z,18.38
2023-10-11T00:18:22.964Z,18.49
2023-10-11T00:20:53.647Z,18.40
2023-10-11T00:23:23.183Z,18.46
2023-10-11T00:26:01.799Z,18.47
2023-10-11T00:28:32.944Z,18.42
2023-10-11T00:31:01.883Z,18.42
2023-10-11T00:33:38.930Z,18.43
2023-10-11T00:36:07.919Z,18.32
2023-10-11T00:38:45.075Z,18.30
2023-10-11T00:41:19.183Z,18.38
2023-10-11T00:43:52.806Z,18.33
2023-10-11T00:46:20.721Z,18.35
2023-10-11T00:49:05.398Z,18.35
2023-10-11T00:51:33.076Z,18.28
2023-10-11T00:54:06.261Z,18.43
2023-10-11T00:56:34.005Z,18.36
2023-10-11T00:59:02.279Z,18.27
2023-10-11T01:01:28.916Z,18.27
2023-10-11T01:03:56.472Z,18.30
2023-10-11T01:06:26.987Z,18.27
2023-10-11T01:08:55.286Z,18.37
2023-10-11T01:11:23.492Z,18.41
2023-10-11T01:13:52.624Z,18.25
2023-10-11T01:16:30.089Z,18.31
2023-10-11T01:18:56.573Z,18.21
2023-10-11T01:21:23.074Z,18.22
2023-10-11T01:23:49.764Z,18.20
2023-10-11T01:26:16.294Z,18.11
2023-10-11T01:28:49.593Z,18.16
2023-10-11T01:31:18.539Z,18.30
2023-10-11T01:33:53.784Z,18.28
2023-10-11T01:36:23.103Z,18.13
2023-10-11T01:38:50.563Z,18.10
2023-10-11T01:41:23.728Z,18.08
2023-10-11T01:43:51.661Z,18.11
2023-10-11T01:46:26.041Z,18.04
2023-10-11T01:48:53.688Z,18.04
2023-10-11T01:51:29.112Z,18.08
2023-10-11T01:54:02.690Z,18.11
2023-10-11T01:56:29.385Z,18.04
2023-10-11T01:59:01.881Z,18.15
2023-10-11T02:01:31.752Z,18.30
2023-10-11T02:04:01.650Z,18.11
2023-10-11T02:06:33.589Z,18.05
2023-10-11T02:09:00.852Z,18.09
2023-10-11T02:11:30.800Z,18.02
2023-10-11T02:13:58.962Z,18.04
2023-10-11T02:16:33.423Z,18.02
2023-10-11T02:19:00.513Z,18.05
2023-10-11T02:21:30.773Z,18.06
2023-10-11T02:24:00.179Z,18.16
2023-10-11T02:26:35.468Z,18.17
2023-10-11T02:29:04.374Z,18.08
2023-10-11T02:31:34.940Z,18.10
2023-10-11T02:34:14.818Z,18.08
2023-10-11T02:36:45.216Z,18.29
2023-10-11T02:39:22.101Z,18.13
2023-10-11T02:41:59.173Z,18.02
2023-10-11T02:44:28.896Z,18.02
2023-10-11T02:46:55.558Z,18.07
2023-10-11T02:49:22.430Z,18.04
2023-10-11T02:51:54.781Z,17.96
2023-10-11T02:54:22.322Z,18.04
2023-10-11T02:56:49.182Z,17.97
2023-10-11T02:59:26.191Z,18.04
2023-10-11T03:02:05.373Z,17.95
2023-10-11T03:04:36.659Z,17.90
2023-10-11T03:07:03.697Z,18.01
2023-10-11T03:09:31.584Z,18.04
2023-10-11T03:11:58.350Z,17.90
2023-10-11T03:14:26.353Z,17.98
2023-10-11T03:17:06.849Z,17.97
2023-10-11T03:19:36.067Z,17.93
2023-10-11T03:22:03.494Z,17.92
2023-10-11T03:24:34.478Z,17.90
2023-10-11T03:27:02.245Z,17.92
2023-10-11T03:29:31.424Z,17.99
2023-10-11T03:31:58.585Z,17.88
2023-10-11T03:34:25.027Z,17.77
2023-10-11T03:36:52.665Z,17.81
2023-10-11T03:39:29.874Z,17.81
2023-10-11T03:42:08.733Z,17.88
2023-10-11T03:44:41.535Z,17.82
2023-10-11T03:47:28.060Z,17.68
2023-10-11T03:49:54.892Z,17.82
2023-10-11T03:52:21.751Z,17.71
2023-10-11T03:54:48.541Z,17.66
2023-10-11T03:57:18.582Z,17.74
2023-10-11T03:59:49.584Z,17.64
2023-10-11T04:02:18.606Z,17.71
2023-10-11T04:04:50.138Z,17.62
2023-10-11T04:07:24.028Z,17.55
2023-10-11T04:09:50.915Z,17.56
2023-10-11T04:12:17.420Z,17.47
2023-10-11T04:14:45.909Z,17.56
2023-10-11T04:17:24.483Z,17.42
2023-10-11T04:19:56.309Z,17.60
2023-10-11T04:22:25.351Z,17.57
2023-10-11T04:24:54.404Z,17.61
2023-10-11T04:27:23.090Z,17.57
2023-10-11T04:29:51.645Z,17.50
2023-10-11T04:32:40.556Z,17.57
2023-10-11T04:35:20.139Z,17.65
2023-10-11T04:37:53.836Z,17.56
2023-10-11T04:40:35.564Z,17.75
2023-10-11T04:43:20.879Z,17.58
2023-10-11T04:48:30.999Z,17.64
2023-10-11T04:51:17.838Z,17.69
2023-10-11T04:53:59.102Z,17.66
2023-10-11T04:56:46.329Z,17.67
2023-10-11T04:59:19.376Z,17.58
2023-10-11T05:01:49.054Z,17.59
2023-10-11T05:04:17.625Z,17.45
2023-10-11T05:06:45.588Z,17.59
2023-10-11T05:09:15.469Z,17.55
2023-10-11T05:11:45.665Z,17.41
2023-10-11T05:14:29.947Z,17.23
2023-10-11T05:17:17.691Z,17.35
2023-10-11T05:20:05.355Z,17.27
2023-10-11T05:22:42.301Z,17.20
2023-10-11T05:25:13.082Z,17.06
2023-10-11T05:27:49.513Z,16.97
2023-10-11T05:30:33.671Z,16.96
2023-10-11T05:33:03.274Z,17.02
2023-10-11T05:35:54.723Z,16.88
2023-10-11T05:38:39.613Z,16.70
2023-10-11T05:41:31.679Z,16.84
2023-10-11T05:44:17.710Z,16.91
2023-10-11T05:47:02.972Z,16.95
2023-10-11T05:49:49.989Z,17.07
2023-10-11T05:52:17.169Z,17.05
2023-10-11T05:54:44.657Z,16.97
2023-10-11T05:57:14.693Z,17.09
2023-10-11T05:59:43.764Z,17.07
2023-10-11T06:02:16.200Z,16.93
2023-10-11T06:04:43.627Z,17.04
2023-10-11T06:07:22.212Z,17.10
2023-10-11T06:10:07.468Z,17.18
2023-10-11T06:12:35.028Z,17.27
2023-10-11T06:15:07.449Z,17.17
2023-10-11T06:17:43.364Z,17.29
2023-10-11T06:20:29.101Z,17.36
2023-10-11T06:22:56.974Z,17.26
2023-10-11T06:25:44.644Z,17.29
2023-10-11T06:28:14.765Z,17.43
2023-10-11T06:30:43.874Z,17.40
2023-10-11T06:33:13.972Z,17.39
2023-10-11T06:35:50.592Z,17.44
2023-10-11T06:38:17.482Z,17.35
2023-10-11T06:41:16.000Z,17.52
2023-10-11T06:43:42.465Z,17.46
2023-10-11T06:46:08.996Z,17.54
2023-10-11T06:48:35.588Z,17.43
2023-10-11T06:51:02.232Z,17.53
2023-10-11T06:53:29.637Z,17.68
2023-10-11T06:56:00.201Z,17.81
2023-10-11T06:58:27.929Z,17.93
2023-10-11T07:00:55.065Z,17.99
2023-10-11T07:03:21.854Z,18.25
2023-10-11T07:05:51.120Z,18.36
2023-10-11T07:08:21.242Z,18.50
2023-10-11T07:11:04.682Z,18.52
2023-10-11T07:13:50.627Z,18.49
2023-10-11T07:16:21.168Z,18.48
2023-10-11T07:18:48.552Z,18.41
2023-10-11T07:21:17.942Z,18.41
2023-10-11T07:23:50.176Z,18.43
2023-10-11T07:26:37.664Z,18.46
2023-10-11T07:29:04.140Z,18.76
2023-10-11T07:31:36.774Z,19.06
2023-10-11T07:34:09.474Z,20.32
2023-10-11T07:36:40.683Z,20.38
2023-10-11T07:39:21.520Z,20.14
2023-10-11T07:41:49.754Z,20.92
2023-10-11T07:44:20.828Z,20.76
2023-10-11T07:46:50.834Z,20.20
2023-10-11T07:49:24.157Z,21.66
2023-10-11T07:51:59.879Z,21.18
2023-10-11T07:54:27.842Z,21.67
2023-10-11T07:56:59.437Z,21.45
2023-10-11T07:59:32.017Z,21.37
2023-10-11T08:02:00.906Z,21.95
2023-10-11T08:04:30.720Z,20.85
2023-10-11T08:07:02.351Z,21.15
2023-10-11T08:09:35.751Z,21.85
2023-10-11T08:12:09.245Z,22.72
2023-10-11T08:14:41.197Z,22.34
2023-10-11T08:17:11.682Z,23.04
2023-10-11T08:19:38.992Z,22.34
2023-10-11T08:22:11.458Z,22.89
2023-10-11T08:24:47.351Z,22.55
2023-10-11T08:27:15.251Z,22.66
2023-10-11T08:29:57.411Z,22.12
2023-10-11T08:32:31.595Z,22.76
2023-10-11T08:34:58.312Z,22.59
2023-10-11T08:37:24.863Z,22.47
2023-10-11T08:39:55.557Z,22.48
2023-10-11T08:42:23.869Z,22.79
2023-10-11T08:44:52.389Z,23.21
2023-10-11T08:47:20.643Z,22.74
2023-10-11T08:49:49.930Z,22.01
2023-10-11T08:52:30.376Z,22.46
2023-10-11T08:55:00.024Z,22.06
2023-10-11T08:57:27.454Z,22.94
2023-10-11T08:59:58.124Z,23.03
2023-10-11T09:02:28.139Z,23.08
2023-10-11T09:05:08.122Z,23.17
2023-10-11T09:07:40.832Z,21.83
2023-10-11T09:10:28.306Z,22.10
2023-10-11T09:12:58.766Z,22.52
2023-10-11T09:15:34.350Z,22.05
2023-10-11T09:18:21.563Z,22.47
2023-10-11T09:20:57.312Z,22.20
2023-10-11T09:23:36.105Z,21.34
2023-10-11T09:26:04.308Z,21.84
2023-10-11T09:28:34.846Z,22.28
2023-10-11T09:31:25.333Z,22.54
2023-10-11T09:33:54.358Z,23.07
2023-10-11T09:36:23.735Z,22.17
2023-10-11T09:38:56.218Z,22.69
2023-10-11T09:41:39.878Z,22.58
2023-10-11T09:44:08.212Z,24.05
2023-10-11T09:46:35.868Z,24.35
2023-10-11T09:49:06.354Z,24.60
2023-10-11T09:51:33.124Z,23.89
2023-10-11T09:54:06.990Z,23.46
2023-10-11T09:56:51.339Z,24.73
2023-10-11T09:59:52.110Z,24.61
2023-10-11T10:02:34.115Z,26.43
2023-10-11T10:05:05.930Z,25.90
2023-10-11T10:07:44.195Z,25.27
2023-10-11T10:10:13.191Z,26.07
2023-10-11T10:12:43.921Z,25.96
2023-10-11T10:15:15.621Z,25.10
2023-10-11T10:18:09.034Z,25.57
2023-10-11T10:20:42.829Z,26.90
2023-10-11T10:23:15.572Z,27.32
2023-10-11T10:25:47.425Z,27.25
2023-10-11T10:28:37.247Z,27.40
2023-10-11T10:31:18.268Z,26.38
2023-10-11T10:33:51.128Z,27.48
2023-10-11T10:36:21.894Z,27.53
2023-10-11T10:39:10.032Z,27.82
2023-10-11T10:41:38.588Z,25.65
2023-10-11T10:44:07.778Z,25.64
2023-10-11T10:46:53.941Z,26.46
2023-10-11T10:49:44.130Z,27.02
2023-10-11T10:52:20.463Z,27.52
2023-10-11T10:55:04.120Z,26.99
2023-10-11T10:57:38.234Z,26.00
2023-10-11T11:00:21.892Z,26.00
2023-10-11T11:02:49.300Z,25.98
2023-10-11T11:05:17.257Z,26.63
2023-10-11T11:07:52.985Z,27.54
2023-10-11T11:10:22.884Z,28.41
2023-10-11T11:12:52.859Z,28.01
2023-10-11T11:15:22.229Z,27.78
2023-10-11T11:17:51.568Z,26.83
2023-10-11T11:20:24.990Z,27.54
2023-10-11T11:22:53.839Z,28.38
2023-10-11T11:25:26.343Z,27.85
2023-10-11T11:28:06.558Z,27.02
2023-10-11T11:30:37.301Z,28.02
2023-10-11T11:33:16.029Z,26.88
2023-10-11T11:35:45.234Z,26.23
2023-10-11T11:38:22.384Z,26.73
2023-10-11T11:41:03.124Z,26.69
2023-10-11T11:43:34.982Z,27.63
2023-10-11T11:46:04.589Z,26.62
2023-10-11T11:48:42.229Z,27.18
2023-10-11T11:51:15.543Z,27.71
2023-10-11T11:53:44.606Z,27.03
2023-10-11T11:56:14.125Z,26.06
2023-10-11T11:58:48.563Z,26.81
2023-10-11T12:01:19.138Z,26.59
2023-10-11T12:03:55.552Z,26.51
2023-10-11T12:06:23.104Z,27.62
2023-10-11T12:09:01.857Z,27.99
2023-10-11T12:11:31.080Z,26.83
2023-10-11T12:13:59.471Z,26.69
2023-10-11T12:16:26.920Z,26.79
2023-10-11T12:19:03.023Z,26.24
2023-10-11T12:21:30.554Z,27.06
2023-10-11T12:23:57.946Z,26.61
2023-10-11T12:26:28.494Z,26.89
2023-10-11T12:28:55.337Z,26.84
2023-10-11T12:31:21.966Z,28.17
2023-10-11T12:33:48.929Z,27.67
2023-10-11T12:36:21.249Z,26.45
2023-10-11T12:38:50.115Z,26.91
2023-10-11T12:41:17.358Z,26.16
2023-10-11T12:43:46.786Z,26.34
2023-10-11T12:46:16.325Z,26.50
2023-10-11T12:48:45.284Z,27.44
2023-10-11T12:51:12.019Z,26.88
2023-10-11T12:53:38.594Z,26.43
2023-10-11T12:56:05.773Z,25.72
2023-10-11T12:58:40.629Z,27.42
2023-10-11T13:01:13.099Z,27.36
2023-10-11T13:03:40.730Z,27.89
2023-10-11T13:06:11.745Z,26.42
2023-10-11T13:08:39.260Z,26.52
2023-10-11T13:11:14.148Z,27.12
2023-10-11T13:13:45.131Z,26.72
2023-10-11T13:16:23.688Z,26.28
2023-10-11T13:18:50.281Z,26.74
2023-10-11T13:21:18.120Z,26.27
2023-10-11T13:23:45.277Z,26.56
2023-10-11T13:26:19.714Z,26.13
2023-10-11T13:28:54.412Z,25.99
2023-10-11T13:31:21.308Z,25.86
2023-10-11T13:33:47.936Z,25.93
2023-10-11T13:36:15.350Z,25.62
2023-10-11T13:38:46.387Z,26.17
2023-10-11T13:41:14.074Z,25.56
2023-10-11T13:43:41.377Z,26.00
2023-10-11T13:46:08.619Z,24.72
2023-10-11T13:48:39.155Z,24.80
2023-10-11T13:51:08.547Z,25.21
2023-10-11T13:53:42.629Z,24.87
2023-10-11T13:56:17.612Z,24.82
2023-10-11T13:58:48.148Z,25.12
2023-10-11T14:01:25.688Z,25.55
2023-10-11T14:03:58.268Z,24.99
2023-10-11T14:06:43.767Z,24.98
2023-10-11T14:09:18.162Z,24.91
2023-10-11T14:11:48.419Z,24.74
2023-10-11T14:14:23.750Z,25.12
2023-10-11T14:16:50.841Z,24.43
2023-10-11T14:19:18.374Z,24.89
2023-10-11T14:21:49.013Z,24.84
2023-10-11T14:24:20.152Z,24.50
2023-10-11T14:26:47.823Z,24.53
2023-10-11T14:29:15.710Z,24.68
2023-10-11T14:31:43.575Z,24.53
2023-10-11T14:34:11.777Z,24.43
2023-10-11T14:36:40.927Z,24.47
2023-10-11T14:39:19.129Z,24.36
2023-10-11T14:41:47.570Z,24.54
2023-10-11T14:44:17.228Z,24.27
2023-10-11T14:46:46.091Z,24.47
2023-10-11T14:49:14.007Z,24.34
2023-10-11T14:51:41.344Z,24.43
2023-10-11T14:54:08.243Z,24.14
2023-10-11T14:56:35.761Z,23.97
2023-10-11T14:59:02.695Z,23.98
2023-10-11T15:01:29.257Z,24.16
2023-10-11T15:04:01.751Z,24.06
2023-10-11T15:06:28.518Z,24.08
2023-10-11T15:08:55.881Z,23.79
2023-10-11T15:11:25.300Z,23.83
2023-10-11T15:13:51.810Z,23.89
2023-10-11T15:16:20.436Z,23.76
2023-10-11T15:18:47.025Z,23.55
2023-10-11T15:21:17.237Z,23.59
2023-10-11T15:23:45.680Z,23.63
2023-10-11T15:26:13.606Z,23.43
2023-10-11T15:28:42.092Z,23.38
2023-10-11T15:31:09.007Z,23.47
2023-10-11T15:33:39.688Z,23.38
2023-10-11T15:36:08.480Z,23.24
2023-10-11T15:38:37.922Z,23.14
2023-10-11T15:41:05.925Z,23.13
2023-10-11T15:43:37.282Z,22.99
2023-10-11T15:46:05.031Z,22.88
2023-10-11T15:48:32.523Z,22.89
2023-10-11T15:51:16.730Z,22.91
2023-10-11T15:53:43.742Z,22.81
2023-10-11T15:56:15.042Z,22.72
2023-10-11T15:58:42.253Z,22.68
2023-10-11T16:01:09.298Z,22.60
2023-10-11T16:03:44.693Z,22.63
2023-10-11T16:06:12.296Z,22.56
2023-10-11T16:08:40.137Z,22.48
2023-10-11T16:11:11.244Z,22.49
2023-10-11T16:13:38.631Z,22.40
2023-10-11T16:16:06.363Z,22.42
2023-10-11T16:18:34.246Z,22.32
2023-10-11T16:21:04.695Z,22.24
2023-10-11T16:23:33.777Z,22.17
2023-10-11T16:26:02.221Z,22.18
2023-10-11T16:28:30.424Z,22.11
2023-10-11T16:31:00.085Z,22.06
2023-10-11T16:33:32.733Z,22.04
2023-10-11T16:36:04.600Z,22.03
2023-10-11T16:38:36.016Z,21.98
2023-10-11T16:41:05.749Z,21.96
2023-10-11T16:43:33.785Z,21.90
2023-10-11T16:46:00.692Z,21.90
2023-10-11T16:48:30.126Z,21.92
2023-10-11T16:50:59.516Z,21.89
2023-10-11T16:53:37.925Z,21.87
2023-10-11T16:56:14.006Z,21.78
2023-10-11T16:58:42.571Z,21.76
2023-10-11T17:01:09.838Z,21.73
2023-10-11T17:03:36.518Z,21.69
2023-10-11T17:06:06.706Z,21.74
2023-10-11T17:08:44.208Z,21.60
2023-10-11T17:11:15.403Z,21.65
2023-10-11T17:13:42.370Z,21.64
2023-10-11T17:16:09.296Z,21.59
2023-10-11T17:18:36.162Z,21.66
2023-10-11T17:21:05.280Z,21.54
2023-10-11T17:23:34.462Z,21.53
2023-10-11T17:26:15.587Z,21.55
2023-10-11T17:28:44.062Z,21.50
2023-10-11T17:31:13.347Z,21.44
2023-10-11T17:33:44.130Z,21.49
2023-10-11T17:36:11.482Z,21.42
2023-10-11T17:38:43.022Z,21.53
2023-10-11T17:41:14.503Z,21.49
2023-10-11T17:43:44.204Z,21.46
2023-10-11T17:46:10.870Z,21.39
2023-10-11T17:48:38.739Z,21.40
2023-10-11T17:51:09.199Z,21.39
2023-10-11T17:53:43.155Z,21.30
2023-10-11T17:56:16.838Z,21.22
2023-10-11T17:58:49.197Z,21.34
2023-10-11T18:01:17.647Z,21.20
2023-10-11T18:03:44.508Z,21.20
2023-10-11T18:06:11.077Z,21.22
2023-10-11T18:08:37.691Z,21.19
2023-10-11T18:11:06.430Z,21.17
2023-10-11T18:13:34.471Z,21.13
2023-10-11T18:16:00.924Z,21.14
2023-10-11T18:18:28.012Z,21.23
2023-10-11T18:20:58.668Z,21.13
2023-10-11T18:23:25.217Z,21.25
2023-10-11T18:25:52.776Z,21.23
2023-10-11T18:28:19.309Z,21.26
2023-10-11T18:30:45.819Z,21.36
2023-10-11T18:33:12.445Z,21.40
2023-10-11T18:35:41.722Z,21.33
2023-10-11T18:38:08.441Z,21.17
2023-10-11T18:40:35.790Z,21.31
2023-10-11T18:43:03.632Z,21.17
2023-10-11T18:45:32.421Z,21.18
2023-10-11T18:48:02.035Z,21.23
2023-10-11T18:50:28.515Z,21.29
2023-10-11T18:52:55.704Z,21.24
2023-10-11T18:55:23.625Z,21.13
2023-10-11T18:57:52.588Z,21.23
2023-10-11T19:00:25.620Z,21.25
2023-10-11T19:02:53.670Z,21.17
2023-10-11T19:05:23.394Z,21.21
2023-10-11T19:07:52.040Z,21.33
2023-10-11T19:10:20.085Z,21.29
2023-10-11T19:12:49.049Z,21.33
2023-10-11T19:15:18.346Z,21.26
2023-10-11T19:17:50.409Z,21.34
2023-10-11T19:20:18.961Z,21.51
2023-10-11T19:22:49.018Z,21.54
2023-10-11T19:25:17.655Z,21.51
2023-10-11T19:27:49.127Z,21.41
2023-10-11T19:30:22.891Z,21.28
2023-10-11T19:32:51.175Z,21.28
2023-10-11T19:35:20.276Z,21.30
2023-10-11T19:37:46.975Z,21.33
2023-10-11T19:40:26.489Z,21.39
2023-10-11T19:42:54.520Z,21.39
2023-10-11T19:45:24.152Z,21.35
2023-10-11T19:47:51.805Z,21.36
2023-10-11T19:50:19.119Z,21.33
2023-10-11T19:52:47.501Z,21.30
2023-10-11T19:55:14.594Z,21.23
2023-10-11T19:57:45.475Z,21.41
2023-10-11T20:00:14.836Z,21.33
2023-10-11T20:02:41.451Z,21.24
2023-10-11T20:05:08.550Z,21.28
2023-10-11T20:07:38.097Z,21.13
2023-10-11T20:10:04.750Z,21.15
2023-10-11T20:12:31.269Z,21.13
2023-10-11T20:14:58.144Z,21.17
2023-10-11T20:17:24.790Z,21.17
2023-10-11T20:19:51.427Z,21.09
2023-10-11T20:22:17.892Z,21.28
2023-10-11T20:24:44.485Z,21.24
2023-10-11T20:27:14.097Z,21.19
2023-10-11T20:29:41.755Z,21.17
2023-10-11T20:32:08.450Z,21.15
2023-10-11T20:34:35.170Z,21.05
2023-10-11T20:37:02.394Z,21.13
2023-10-11T20:39:31.165Z,21.22
2023-10-11T20:41:58.343Z,21.12
2023-10-11T20:44:26.400Z,21.06
2023-10-11T20:46:53.693Z,21.04
2023-10-11T20:49:20.394Z,21.14
2023-10-11T20:51:46.966Z,21.04
2023-10-11T20:54:17.084Z,20.98
2023-10-11T20:56:47.573Z,20.91
2023-10-11T20:59:19.391Z,21.01
2023-10-11T21:01:46.889Z,21.00
2023-10-11T21:04:13.940Z,21.04
2023-10-11T21:06:42.719Z,20.98
2023-10-11T21:09:10.002Z,20.94
2023-10-11T21:11:37.162Z,20.98
2023-10-11T21:14:04.330Z,20.98
2023-10-11T21:16:35.143Z,20.91
2023-10-11T21:19:02.115Z,20.99
2023-10-11T21:21:29.481Z,20.93
2023-10-11T21:23:56.691Z,20.86
2023-10-11T21:26:23.839Z,20.93
2023-10-11T21:28:55.232Z,20.96
2023-10-11T21:31:22.524Z,20.94
2023-10-11T21:33:51.370Z,20.92
2023-10-11T21:36:18.140Z,20.91
2023-10-11T21:38:51.441Z,20.93
2023-10-11T21:41:22.861Z,20.90
2023-10-11T21:43:50.170Z,20.86
2023-10-11T21:46:17.091Z,20.90
2023-10-11T21:48:44.163Z,20.84
2023-10-11T21:51:13.934Z,20.82
2023-10-11T21:53:42.786Z,20.76
2023-10-11T21:56:10.548Z,20.73
2023-10-11T21:58:39.414Z,20.83
2023-10-11T22:01:08.291Z,20.83
2023-10-11T22:03:36.316Z,20.70
2023-10-11T22:06:06.465Z,20.70
2023-10-11T22:08:36.904Z,20.70
2023-10-11T22:11:05.398Z,20.59
2023-10-11T22:13:33.913Z,20.64
2023-10-11T22:16:00.718Z,20.63
2023-10-11T22:18:30.883Z,20.50
2023-10-11T22:21:00.383Z,20.63
2023-10-11T22:23:32.206Z,20.56
2023-10-11T22:25:58.930Z,20.53
2023-10-11T22:28:26.076Z,20.56
2023-10-11T22:30:52.848Z,20.54
2023-10-11T22:33:23.771Z,20.54
2023-10-11T22:35:52.626Z,20.51
2023-10-11T22:38:22.367Z,20.48
2023-10-11T22:40:52.598Z,20.55
2023-10-11T22:43:29.709Z,20.52
2023-10-11T22:45:58.671Z,20.56
2023-10-11T22:48:26.076Z,20.49
2023-10-11T22:50:53.255Z,20.57
2023-10-11T22:53:24.216Z,20.50
2023-10-11T22:55:51.481Z,20.47
2023-10-11T22:58:20.361Z,20.42
2023-10-11T23:00:49.366Z,20.38
2023-10-11T23:03:16.592Z,20.35
2023-10-11T23:05:43.239Z,20.47
2023-10-11T23:08:10.533Z,20.32
2023-10-11T23:10:44.033Z,20.40
2023-10-11T23:13:10.896Z,20.40
2023-10-11T23:15:54.318Z,20.34
2023-10-11T23:18:27.651Z,20.39
2023-10-11T23:21:02.367Z,20.34
2023-10-11T23:23:31.090Z,20.36
2023-10-11T23:26:06.044Z,20.35
2023-10-11T23:28:37.577Z,20.37
2023-10-11T23:31:10.108Z,20.31
2023-10-11T23:33:38.155Z,20.30
2023-10-11T23:36:12.720Z,20.33
2023-10-11T23:38:48.251Z,20.29
2023-10-11T23:41:14.901Z,20.20
2023-10-11T23:43:45.240Z,20.11
2023-10-11T23:46:16.407Z,20.21
2023-10-11T23:48:45.858Z,20.19
2023-10-11T23:51:19.869Z,20.28
2023-10-11T23:53:46.893Z,20.43
2023-10-11T23:56:20.355Z,20.30
2023-10-11T23:58:57.700Z,20.26
